Time;durP1;ratioP1;P1;durP2;ratioP2;P2;SDS_P1;SDS_P2;PMS_P1;PMS_P2;Temp;Humidity;BMP_temperature;BMP_pressure;BME280_temperature;BME280_humidity;BME280_pressure;Samples;Min_cycle;Max_cycle;Signal;HPM_P1;HPM_P2
2021/03/21 00:02:09;;;;;;;4.63;2.80;;;8.80;90.80;;;;;;5057496;28;20089;-82
2021/03/21 00:07:59;;;;;;;4.53;2.75;;;8.90;90.80;;;;;;5074984;28;20040;-82
2021/03/21 00:10:26;;;;;;;5.13;3.38;;;8.90;90.70;;;;;;5057349;28;20383;-82
2021/03/21 00:12:53;;;;;;;7.75;4.65;;;8.90;90.70;;;;;;5074098;28;20113;-82
2021/03/21 00:15:19;;;;;;;6.60;4.47;;;9.00;90.90;;;;;;5056785;28;20222;-81
2021/03/21 00:17:45;;;;;;;7.65;4.50;;;8.90;90.90;;;;;;5057203;28;20047;-82
2021/03/21 00:20:13;;;;;;;8.52;6.00;;;8.90;90.90;;;;;;5058364;28;20520;-82
2021/03/21 00:22:38;;;;;;;7.15;4.93;;;8.80;91.30;;;;;;5082855;28;20115;-82
2021/03/21 00:25:07;;;;;;;6.85;4.82;;;8.80;91.10;;;;;;5085930;28;20368;-82
2021/03/21 00:27:33;;;;;;;7.45;5.43;;;8.80;91.20;;;;;;5099126;28;20081;-83
2021/03/21 00:29:59;;;;;;;6.50;4.63;;;8.80;91.20;;;;;;5081418;28;20087;-81
2021/03/21 00:32:24;;;;;;;6.45;4.30;;;8.80;91.20;;;;;;5070363;28;20032;-81
2021/03/21 00:34:50;;;;;;;7.35;5.07;;;8.80;91.20;;;;;;5058537;28;20031;-84
2021/03/21 00:37:16;;;;;;;6.20;3.97;;;8.80;91.30;;;;;;5064843;28;20009;-82
2021/03/21 00:39:41;;;;;;;6.90;4.72;;;8.80;91.30;;;;;;5052554;28;20029;-82
2021/03/21 00:42:07;;;;;;;7.63;4.55;;;8.80;91.40;;;;;;5037729;28;20032;-82
2021/03/21 00:44:33;;;;;;;5.72;4.15;;;8.80;91.40;;;;;;5004337;28;20025;-82
2021/03/21 00:46:59;;;;;;;6.47;3.92;;;8.70;91.50;;;;;;5008692;28;20033;-82
2021/03/21 00:49:24;;;;;;;6.18;4.00;;;8.60;91.50;;;;;;5024116;28;20124;-83
2021/03/21 00:51:50;;;;;;;5.22;3.55;;;8.60;91.60;;;;;;5056444;28;20052;-82
2021/03/21 00:57:38;;;;;;;4.68;3.00;;;8.60;91.60;;;;;;5074229;28;20024;-82
2021/03/21 01:00:09;;;;;;;4.55;2.97;;;8.60;91.60;;;;;;5067272;28;20028;-83
2021/03/21 01:02:34;;;;;;;4.28;2.33;;;8.60;91.60;;;;;;5054036;28;20104;-82
2021/03/21 01:05:01;;;;;;;4.63;2.67;;;8.60;91.60;;;;;;5003593;28;20172;-81
2021/03/21 01:07:26;;;;;;;3.47;2.30;;;8.60;91.70;;;;;;5003712;28;20110;-82
2021/03/21 01:09:52;;;;;;;3.25;1.88;;;8.60;91.60;;;;;;5035930;28;20116;-82
2021/03/21 01:12:18;;;;;;;4.72;2.22;;;8.50;91.70;;;;;;5004227;28;20032;-82
2021/03/21 01:14:45;;;;;;;3.50;2.13;;;8.60;91.70;;;;;;5002940;28;20400;-82
2021/03/21 01:17:10;;;;;;;3.42;1.83;;;8.50;91.70;;;;;;5019897;28;20033;-82
2021/03/21 01:19:37;;;;;;;2.55;1.58;;;8.60;91.70;;;;;;5035971;28;20032;-83
2021/03/21 01:25:30;;;;;;;3.53;1.60;;;8.60;91.70;;;;;;5052253;28;20029;-82
2021/03/21 01:31:20;;;;;;;4.20;2.00;;;8.60;91.60;;;;;;5053322;28;20020;-82
2021/03/21 01:33:47;;;;;;;3.15;1.50;;;8.50;91.60;;;;;;5019457;28;20039;-82
2021/03/21 01:36:17;;;;;;;4.03;2.05;;;8.50;91.70;;;;;;5032490;28;20031;-82
2021/03/21 01:38:42;;;;;;;2.30;1.50;;;8.50;91.70;;;;;;5052806;28;20025;-86
2021/03/21 01:41:15;;;;;;;3.03;1.33;;;8.50;91.70;;;;;;5046948;28;20055;-82
2021/03/21 01:43:41;;;;;;;2.13;1.17;;;8.50;91.80;;;;;;5052171;28;20897;-82
2021/03/21 01:46:08;;;;;;;3.83;1.20;;;8.50;91.80;;;;;;5029465;28;20052;-82
2021/03/21 01:48:51;;;;;;;2.65;1.10;;;8.40;91.80;;;;;;5055898;28;20043;-82
2021/03/21 01:51:29;;;;;;;1.85;1.25;;;8.50;91.80;;;;;;5073538;28;20031;-82
2021/03/21 01:53:58;;;;;;;1.58;1.10;;;8.40;91.80;;;;;;5073265;28;20173;-81
2021/03/21 01:56:26;;;;;;;1.83;1.40;;;8.40;91.80;;;;;;5053527;28;20087;-82
2021/03/21 01:59:05;;;;;;;2.03;1.40;;;8.40;91.80;;;;;;5054311;28;20029;-82
2021/03/21 02:01:30;;;;;;;2.10;1.15;;;8.40;91.90;;;;;;5053409;28;20112;-82
2021/03/21 02:03:57;;;;;;;1.40;1.30;;;8.40;92.00;;;;;;5019226;28;20053;-82
2021/03/21 02:06:40;;;;;;;2.63;1.23;;;8.40;91.90;;;;;;5053398;28;20022;-82
2021/03/21 02:19:22;;;;;;;2.03;1.52;;;8.30;92.20;;;;;;5057363;28;20044;-82
2021/03/21 02:22:00;;;;;;;2.65;1.83;;;8.20;92.20;;;;;;5053583;28;20035;-82
2021/03/21 02:24:26;;;;;;;3.28;1.90;;;8.20;92.30;;;;;;5056058;28;20025;-82
2021/03/21 02:27:01;;;;;;;3.15;2.20;;;8.20;92.40;;;;;;5042705;28;20055;-82
2021/03/21 02:29:32;;;;;;;2.72;2.10;;;8.20;92.50;;;;;;5077534;28;20033;-82
2021/03/21 02:32:22;;;;;;;3.40;2.30;;;8.20;92.50;;;;;;5059238;28;20376;-82
2021/03/21 02:44:49;;;;;;;2.75;2.00;;;8.10;92.70;;;;;;5056470;28;19915;-82
2021/03/21 02:47:21;;;;;;;3.13;2.08;;;8.10;92.60;;;;;;5038837;28;20060;-83
2021/03/21 02:49:50;;;;;;;3.90;2.33;;;8.10;92.60;;;;;;5039525;28;20493;-82
2021/03/21 02:52:22;;;;;;;3.55;2.50;;;8.10;92.60;;;;;;5038969;28;20016;-82
2021/03/21 02:59:00;;;;;;;6.43;2.60;;;8.10;92.70;;;;;;5056379;28;20492;-82
2021/03/21 03:04:55;;;;;;;5.28;3.20;;;8.10;92.70;;;;;;5056330;28;20139;-82
2021/03/21 03:10:57;;;;;;;4.20;3.05;;;8.10;92.80;;;;;;4956997;29;20034;-82
2021/03/21 03:13:27;;;;;;;4.80;3.28;;;8.10;92.80;;;;;;5038323;28;20086;-82
2021/03/21 03:16:01;;;;;;;5.40;3.67;;;8.10;92.90;;;;;;5056520;28;20021;-83
2021/03/21 03:22:00;;;;;;;6.43;3.83;;;8.20;92.90;;;;;;5055885;28;20020;-82
2021/03/21 03:28:16;;;;;;;5.72;3.80;;;8.20;92.90;;;;;;5055759;28;20044;-82
2021/03/21 03:30:50;;;;;;;5.60;3.78;;;8.20;93.00;;;;;;5037942;28;20053;-82
2021/03/21 03:36:13;;;;;;;8.15;5.22;;;8.30;93.00;;;;;;5056522;28;20400;-82
2021/03/21 03:56:21;;;;;;;7.25;5.30;;;8.20;93.20;;;;;;4991063;28;20065;-82
2021/03/21 04:09:42;;;;;;;7.13;5.43;;;8.20;93.50;;;;;;5016384;28;20027;-81
2021/03/21 04:12:12;;;;;;;8.30;5.35;;;8.20;93.60;;;;;;5002938;28;20030;-82
2021/03/21 04:14:52;;;;;;;7.80;5.82;;;8.20;93.60;;;;;;5011901;28;20037;-82
2021/03/21 04:20:52;;;;;;;8.07;5.90;;;8.20;93.60;;;;;;5058077;28;20052;-83
2021/03/21 04:23:37;;;;;;;8.73;5.90;;;8.20;93.70;;;;;;5045682;28;20036;-83
2021/03/21 04:26:08;;;;;;;8.02;5.45;;;8.20;93.70;;;;;;5057940;28;20349;-84
2021/03/21 04:28:41;;;;;;;7.68;5.15;;;8.20;93.60;;;;;;5057083;28;20033;-83
2021/03/21 04:34:30;;;;;;;12.10;6.25;;;8.20;93.60;;;;;;5065956;28;20059;-83
2021/03/21 04:36:58;;;;;;;8.85;6.20;;;8.30;93.70;;;;;;5056641;28;20021;-83
2021/03/21 04:39:29;;;;;;;8.18;5.82;;;8.30;93.70;;;;;;5074202;28;20056;-82
2021/03/21 04:45:29;;;;;;;9.43;6.07;;;8.30;93.80;;;;;;5074809;28;20035;-80
2021/03/21 04:55:24;;;;;;;9.00;5.70;;;8.30;93.80;;;;;;5074186;28;20065;-83
2021/03/21 05:22:41;;;;;;;11.77;6.43;;;8.30;93.80;;;;;;5074164;28;20028;-83
2021/03/21 06:52:04;;;;;;;5.85;1.65;;;8.10;93.60;;;;;;5077625;28;20063;-82
2021/03/21 07:47:46;;;;;;;9.00;1.75;;;8.20;93.40;;;;;;5061378;28;20025;-82
2021/03/21 07:54:07;;;;;;;5.95;1.58;;;8.30;93.20;;;;;;5080109;28;20059;-81
2021/03/21 08:00:01;;;;;;;4.57;1.02;;;8.40;92.80;;;;;;5072439;28;20032;-81
2021/03/21 08:02:27;;;;;;;9.30;1.83;;;8.40;92.80;;;;;;5077741;28;20024;-83
2021/03/21 08:26:41;;;;;;;6.43;1.38;;;8.60;91.90;;;;;;5024208;28;20413;-83
2021/03/21 08:43:16;;;;;;;10.63;1.88;;;8.70;91.30;;;;;;4996862;28;20085;-82
2021/03/21 08:49:37;;;;;;;12.18;2.13;;;8.70;91.20;;;;;;5057056;28;20055;-83
2021/03/21 08:59:13;;;;;;;12.55;3.30;;;8.80;90.50;;;;;;5054361;28;20060;-83
2021/03/21 09:15:29;;;;;;;14.25;2.33;;;8.80;89.90;;;;;;5054228;28;20036;-81
2021/03/21 09:21:58;;;;;;;21.42;3.00;;;8.80;90.00;;;;;;5053182;28;20032;-82
2021/03/21 09:24:57;;;;;;;13.25;2.20;;;8.90;90.00;;;;;;5036557;28;20028;-86
2021/03/21 09:27:34;;;;;;;14.88;3.28;;;8.90;90.00;;;;;;5053807;28;20059;-91
2021/03/21 09:30:37;;;;;;;15.10;2.50;;;8.90;90.00;;;;;;5057234;28;20086;-94
2021/03/21 09:33:07;;;;;;;20.38;3.22;;;9.00;89.20;;;;;;5050971;28;20115;-82
2021/03/21 09:35:41;;;;;;;20.15;4.82;;;9.00;88.50;;;;;;5072306;28;20421;-82
2021/03/21 09:38:12;;;;;;;12.40;2.92;;;9.00;87.90;;;;;;5055584;28;20484;-85
2021/03/21 09:40:42;;;;;;;15.60;3.45;;;9.00;88.20;;;;;;5055714;28;20107;-83
2021/03/21 09:43:14;;;;;;;14.23;2.88;;;9.00;88.20;;;;;;5054058;28;20102;-83
2021/03/21 09:45:45;;;;;;;15.90;3.17;;;9.00;88.20;;;;;;5042527;28;20016;-82
2021/03/21 09:48:35;;;;;;;18.02;3.05;;;9.10;87.40;;;;;;5058381;28;20037;-84
2021/03/21 09:51:15;;;;;;;17.10;3.75;;;9.10;87.40;;;;;;5036607;28;20122;-84
2021/03/21 09:54:08;;;;;;;19.80;3.80;;;9.20;87.50;;;;;;5072150;28;20025;-86
2021/03/21 09:56:49;;;;;;;18.70;4.15;;;9.20;87.00;;;;;;5063163;28;20021;-83
2021/03/21 09:59:14;;;;;;;;;;;9.20;86.90;;;;;;5052987;28;20021;-82
2021/03/21 10:01:49;;;;;;;17.10;3.78;;;9.20;86.50;;;;;;5052537;28;19911;-82
2021/03/21 10:08:06;;;;;;;14.10;3.42;;;9.30;86.00;;;;;;5053256;28;20112;-82
2021/03/21 10:14:27;;;;;;;17.58;3.40;;;9.30;84.80;;;;;;5053249;28;20036;-82
2021/03/21 10:20:17;;;;;;;15.82;3.63;;;9.40;84.30;;;;;;5053000;28;20023;-81
2021/03/21 10:22:42;;;;;;;18.20;3.83;;;9.40;83.80;;;;;;5055005;28;20409;-81
2021/03/21 10:25:12;;;;;;;20.65;4.43;;;9.40;83.20;;;;;;5073025;28;20067;-81
2021/03/21 10:27:42;;;;;;;17.38;2.80;;;9.40;82.00;;;;;;5054462;28;20143;-83
2021/03/21 10:33:32;;;;;;;15.70;3.35;;;9.40;82.20;;;;;;5035209;28;20080;-84
2021/03/21 10:35:58;;;;;;;21.92;3.85;;;9.50;81.20;;;;;;5019507;28;20120;-85
2021/03/21 10:38:43;;;;;;;13.90;3.15;;;9.50;81.40;;;;;;5049675;28;20117;-83
2021/03/21 10:41:08;;;;;;;16.98;3.17;;;9.50;81.70;;;;;;5018877;28;20029;-83
2021/03/21 10:43:35;;;;;;;10.82;2.22;;;9.60;81.70;;;;;;5011358;28;20032;-84
2021/03/21 10:46:01;;;;;;;17.90;4.18;;;9.60;82.00;;;;;;5038603;28;20021;-83
2021/03/21 10:48:26;;;;;;;11.52;2.60;;;9.60;82.40;;;;;;5021862;28;20048;-83
2021/03/21 10:50:58;;;;;;;11.40;2.47;;;9.70;82.50;;;;;;5045136;28;20038;-81
2021/03/21 10:53:28;;;;;;;19.27;3.40;;;9.70;82.40;;;;;;5031727;28;20064;-83
2021/03/21 10:56:21;;;;;;;19.52;3.38;;;9.80;81.50;;;;;;5047301;28;20033;-82
2021/03/21 10:58:46;;;;;;;10.10;2.78;;;9.80;81.00;;;;;;5036221;28;20033;-82
2021/03/21 11:01:25;;;;;;;16.38;4.28;;;9.80;81.40;;;;;;5053384;28;20365;-83
2021/03/21 11:04:18;;;;;;;28.38;4.05;;;9.80;80.40;;;;;;5044388;28;20021;-83
2021/03/21 11:06:56;;;;;;;14.07;3.35;;;9.90;80.00;;;;;;5038036;28;20178;-84
2021/03/21 11:09:32;;;;;;;16.23;3.10;;;9.90;79.80;;;;;;5052765;28;20032;-88
2021/03/21 11:12:00;;;;;;;19.70;3.38;;;9.90;80.10;;;;;;5042119;28;20021;-82
2021/03/21 11:14:26;;;;;;;16.15;3.50;;;9.90;80.20;;;;;;5008386;28;20032;-82
2021/03/21 11:20:25;;;;;;;15.10;3.10;;;10.00;80.40;;;;;;5036290;28;20448;-81
2021/03/21 11:22:51;;;;;;;20.98;4.10;;;10.10;78.90;;;;;;5030553;28;20075;-83
2021/03/21 11:25:34;;;;;;;13.45;3.10;;;10.10;78.60;;;;;;5011513;28;20056;-82
2021/03/21 11:28:00;;;;;;;17.70;3.22;;;10.10;79.00;;;;;;5042433;28;20496;-83
2021/03/21 11:30:28;;;;;;;16.15;3.10;;;10.10;79.10;;;;;;5067307;28;20377;-84
2021/03/21 11:32:57;;;;;;;13.98;3.38;;;10.20;79.20;;;;;;5075634;28;20089;-83
2021/03/21 11:35:29;;;;;;;15.43;3.92;;;10.20;78.90;;;;;;5091307;28;20001;-83
2021/03/21 11:37:57;;;;;;;16.75;3.60;;;10.20;78.60;;;;;;5078622;28;20109;-82
2021/03/21 11:40:35;;;;;;;14.82;3.75;;;10.20;78.20;;;;;;5098848;28;20076;-90
2021/03/21 11:43:21;;;;;;;15.07;2.95;;;10.30;77.00;;;;;;5079241;28;20040;-83
2021/03/21 11:45:51;;;;;;;20.42;4.15;;;10.30;77.10;;;;;;5078490;28;20033;-83
2021/03/21 11:48:21;;;;;;;14.32;2.90;;;10.30;75.80;;;;;;5073136;28;20036;-83
2021/03/21 11:50:52;;;;;;;17.20;3.93;;;10.30;75.70;;;;;;5077845;28;20050;-83
2021/03/21 11:53:21;;;;;;;14.23;3.42;;;10.30;73.90;;;;;;5074580;28;20112;-82
2021/03/21 11:59:25;;;;;;;25.92;4.72;;;10.30;75.50;;;;;;5014371;28;20513;-83
2021/03/21 12:01:56;;;;;;;14.68;3.75;;;10.30;75.40;;;;;;5013530;28;20040;-83
2021/03/21 12:04:39;;;;;;;15.93;4.30;;;10.30;75.50;;;;;;5056479;28;20036;-83
2021/03/21 12:07:08;;;;;;;17.55;3.08;;;10.40;74.40;;;;;;5074080;28;20380;-83
2021/03/21 12:09:54;;;;;;;18.08;3.00;;;10.40;74.90;;;;;;5074322;28;20028;-83
2021/03/21 12:15:41;;;;;;;16.70;3.30;;;10.40;73.90;;;;;;5072478;28;20020;-82
2021/03/21 12:18:17;;;;;;;13.13;3.33;;;10.50;74.30;;;;;;5056274;28;20058;-81
2021/03/21 12:20:47;;;;;;;18.92;3.80;;;10.50;75.00;;;;;;5062368;28;20036;-80
2021/03/21 12:26:37;;;;;;;17.40;3.13;;;10.60;75.20;;;;;;5015483;28;20111;-85
2021/03/21 12:29:26;;;;;;;17.80;3.67;;;10.60;73.40;;;;;;5051917;28;20053;-83
2021/03/21 12:32:12;;;;;;;17.88;3.67;;;10.60;73.50;;;;;;5049452;28;20083;-82
2021/03/21 12:34:50;;;;;;;16.55;4.13;;;10.60;73.30;;;;;;5030154;28;20484;-84
2021/03/21 12:37:27;;;;;;;15.95;4.07;;;10.60;73.80;;;;;;5037101;28;20029;-83
2021/03/21 12:40:27;;;;;;;13.93;2.90;;;10.60;73.50;;;;;;5033029;28;20061;-83
2021/03/21 12:42:53;;;;;;;16.13;3.33;;;10.60;73.70;;;;;;5054508;28;20079;-81
2021/03/21 12:45:26;;;;;;;24.63;4.53;;;10.60;73.20;;;;;;5016220;28;20397;-83
2021/03/21 12:47:54;;;;;;;14.40;3.17;;;10.60;73.10;;;;;;5034188;28;20061;-82
2021/03/21 12:50:38;;;;;;;13.35;3.17;;;10.60;72.80;;;;;;5040692;28;20037;-82
2021/03/21 12:53:07;;;;;;;17.38;3.67;;;10.60;73.10;;;;;;5034257;28;20032;-80
2021/03/21 12:55:33;;;;;;;12.02;2.67;;;10.60;73.30;;;;;;5053051;28;20111;-82
2021/03/21 12:57:59;;;;;;;12.27;2.92;;;10.60;73.70;;;;;;5016175;28;20485;-81
2021/03/21 13:00:29;;;;;;;16.00;3.50;;;10.60;74.20;;;;;;5027019;28;20365;-81
2021/03/21 13:02:57;;;;;;;21.77;4.87;;;10.60;74.50;;;;;;5035839;28;20040;-85
2021/03/21 13:12:00;;;;;;;14.63;2.97;;;10.70;74.70;;;;;;5041691;28;20025;-81
2021/03/21 13:14:47;;;;;;;14.02;3.45;;;10.70;74.60;;;;;;5036054;28;20080;-82
2021/03/21 13:23:10;;;;;;;13.45;3.33;;;10.80;72.80;;;;;;4984370;28;20055;-79
2021/03/21 13:25:35;;;;;;;18.38;4.10;;;10.80;72.70;;;;;;5040153;28;20461;-82
2021/03/21 13:28:03;;;;;;;16.73;3.25;;;10.90;71.70;;;;;;5051224;28;20466;-79
2021/03/21 13:30:32;;;;;;;20.95;4.13;;;10.90;72.40;;;;;;5065220;28;20025;-88
2021/03/21 13:32:58;;;;;;;20.63;4.63;;;10.90;72.40;;;;;;5049537;28;20029;-89
2021/03/21 13:35:27;;;;;;;19.13;3.95;;;10.90;72.00;;;;;;5053211;28;20025;-81
2021/03/21 13:37:53;;;;;;;19.33;3.97;;;10.90;71.70;;;;;;5019929;28;20370;-81
2021/03/21 13:40:26;;;;;;;16.50;3.75;;;10.90;71.50;;;;;;5054148;28;20132;-81
2021/03/21 13:42:52;;;;;;;18.27;4.00;;;10.90;72.20;;;;;;5035766;28;20021;-81
2021/03/21 13:52:03;;;;;;;18.90;4.35;;;11.00;73.30;;;;;;5067062;28;20476;-82
2021/03/21 13:54:29;;;;;;;17.42;3.53;;;11.00;73.50;;;;;;5024833;28;20108;-84
2021/03/21 13:56:54;;;;;;;14.25;3.20;;;11.10;73.20;;;;;;5032006;28;20111;-81
2021/03/21 13:59:20;;;;;;;16.92;3.88;;;11.10;73.30;;;;;;5025745;28;20032;-80
2021/03/21 14:01:45;;;;;;;11.98;3.33;;;11.10;73.20;;;;;;5038373;28;20033;-80
2021/03/21 14:04:11;;;;;;;17.55;2.85;;;11.10;73.30;;;;;;5036956;28;20037;-82
2021/03/21 14:06:37;;;;;;;12.63;3.40;;;11.10;72.50;;;;;;5017074;28;20033;-80
2021/03/21 14:09:03;;;;;;;20.70;4.10;;;11.20;72.20;;;;;;5054891;28;20412;-82
2021/03/21 14:11:28;;;;;;;18.60;3.80;;;11.10;70.60;;;;;;5064103;28;20029;-81
2021/03/21 14:13:54;;;;;;;15.50;3.47;;;11.10;71.50;;;;;;5053354;28;20028;-80
2021/03/21 14:16:20;;;;;;;17.42;3.60;;;11.10;71.80;;;;;;5025097;28;20024;-82
2021/03/21 14:18:46;;;;;;;19.10;4.18;;;11.10;71.80;;;;;;5042580;28;20032;-82
2021/03/21 14:21:12;;;;;;;20.25;3.85;;;11.10;70.80;;;;;;5043408;28;20021;-82
2021/03/21 14:23:38;;;;;;;13.70;3.05;;;11.10;70.40;;;;;;5053329;28;20048;-83
2021/03/21 14:26:03;;;;;;;12.73;2.67;;;11.10;71.10;;;;;;5042299;28;20034;-84
2021/03/21 14:28:35;;;;;;;11.20;2.78;;;11.10;71.70;;;;;;5038658;28;20045;-83
2021/03/21 14:31:05;;;;;;;;;;;11.10;72.00;;;;;;5057280;28;20045;-82
2021/03/21 14:33:33;;;;;;;19.40;3.83;;;11.10;71.70;;;;;;5055701;28;20003;-83
2021/03/21 14:35:58;;;;;;;15.63;3.22;;;11.10;71.50;;;;;;5062752;28;20017;-83
2021/03/21 14:38:25;;;;;;;17.00;3.50;;;11.00;72.20;;;;;;5046320;28;20048;-83
2021/03/21 14:40:52;;;;;;;17.10;3.08;;;11.00;72.40;;;;;;5044395;28;20029;-83
2021/03/21 14:43:19;;;;;;;15.38;3.75;;;11.10;72.50;;;;;;5045885;28;20028;-84
2021/03/21 14:45:45;;;;;;;13.20;2.75;;;11.10;72.80;;;;;;5054403;28;20491;-83
2021/03/21 14:48:11;;;;;;;13.80;3.22;;;11.10;72.50;;;;;;5059469;28;20060;-85
2021/03/21 14:50:37;;;;;;;18.38;3.30;;;11.10;72.00;;;;;;5043652;28;20040;-82
2021/03/21 14:53:03;;;;;;;12.80;3.35;;;11.10;72.30;;;;;;5049981;28;20036;-83
2021/03/21 14:55:32;;;;;;;14.73;2.78;;;11.10;71.90;;;;;;5032612;28;20469;-83
2021/03/21 14:57:58;;;;;;;14.70;3.15;;;11.00;71.40;;;;;;5047784;28;20029;-83
2021/03/21 15:00:31;;;;;;;15.48;3.25;;;11.00;71.10;;;;;;5047600;28;20032;-84
2021/03/21 15:02:57;;;;;;;11.32;2.70;;;11.00;71.10;;;;;;5076203;28;20012;-83
2021/03/21 15:05:23;;;;;;;11.77;2.65;;;10.90;71.30;;;;;;5057967;28;20093;-83
2021/03/21 15:07:49;;;;;;;9.27;2.88;;;11.00;71.10;;;;;;5073581;28;20039;-82
2021/03/21 15:10:18;;;;;;;15.65;3.42;;;10.90;71.60;;;;;;5056284;28;20041;-84
2021/03/21 15:12:44;;;;;;;10.57;2.83;;;10.90;71.60;;;;;;5058897;28;20020;-82
2021/03/21 15:15:24;;;;;;;12.35;3.67;;;11.00;71.90;;;;;;5043901;28;20365;-83
2021/03/21 15:17:50;;;;;;;13.93;3.22;;;10.90;72.10;;;;;;5073039;28;20035;-82
2021/03/21 15:20:17;;;;;;;10.90;2.95;;;11.00;72.10;;;;;;5040854;28;20411;-83
2021/03/21 15:22:43;;;;;;;16.45;3.70;;;11.00;72.10;;;;;;5062973;28;20005;-80
2021/03/21 15:25:30;;;;;;;16.48;4.75;;;11.00;71.30;;;;;;5079304;28;20005;-83
2021/03/21 15:27:59;;;;;;;13.40;3.40;;;10.90;70.40;;;;;;5059138;28;20047;-83
2021/03/21 15:30:28;;;;;;;12.48;3.40;;;10.90;70.90;;;;;;5081025;28;20009;-83
2021/03/21 15:32:54;;;;;;;16.20;3.50;;;10.90;71.70;;;;;;5066476;28;20013;-81
2021/03/21 15:35:21;;;;;;;18.00;3.88;;;10.90;71.60;;;;;;5038494;28;20063;-82
2021/03/21 15:37:47;;;;;;;16.30;3.63;;;10.90;70.90;;;;;;5038455;28;20029;-82
2021/03/21 15:40:35;;;;;;;20.83;3.60;;;10.80;70.90;;;;;;5056183;28;20087;-82
2021/03/21 15:43:01;;;;;;;17.52;3.47;;;10.80;71.50;;;;;;5053286;28;20097;-81
2021/03/21 15:45:30;;;;;;;16.88;3.70;;;10.80;71.20;;;;;;5071236;28;20377;-82
2021/03/21 15:48:21;;;;;;;16.05;3.22;;;10.80;71.20;;;;;;5055637;28;20056;-82
2021/03/21 15:50:47;;;;;;;;;;;10.80;71.80;;;;;;5054619;28;20029;-81
2021/03/21 15:53:15;;;;;;;18.70;3.78;;;10.80;71.70;;;;;;5054407;28;20323;-81
2021/03/21 15:55:41;;;;;;;17.45;3.40;;;10.70;70.80;;;;;;5074350;28;20066;-82
2021/03/21 15:58:07;;;;;;;14.45;3.30;;;10.70;71.20;;;;;;5057716;28;20063;-81
2021/03/21 16:00:38;;;;;;;11.73;3.10;;;10.70;71.70;;;;;;5041777;28;20028;-81
2021/03/21 16:03:13;;;;;;;16.95;3.88;;;10.70;71.90;;;;;;5075249;28;20143;-82
2021/03/21 16:05:40;;;;;;;16.95;3.15;;;10.70;72.00;;;;;;5075339;28;20064;-82
2021/03/21 16:08:10;;;;;;;14.63;3.47;;;10.70;72.30;;;;;;5073666;28;20404;-81
2021/03/21 16:10:37;;;;;;;17.75;3.13;;;10.70;72.60;;;;;;5056556;28;20051;-82
2021/03/21 16:13:23;;;;;;;16.63;4.07;;;10.70;71.70;;;;;;5057439;28;20032;-83
2021/03/21 16:15:49;;;;;;;19.52;3.67;;;10.70;71.70;;;;;;5078006;28;20025;-81
2021/03/21 16:18:16;;;;;;;13.05;3.33;;;10.60;72.40;;;;;;5058418;28;20039;-81
2021/03/21 16:20:44;;;;;;;12.25;3.58;;;10.70;71.80;;;;;;5041974;28;20032;-82
2021/03/21 16:23:10;;;;;;;14.80;2.83;;;10.60;72.10;;;;;;5075438;28;20028;-81
2021/03/21 16:25:38;;;;;;;15.00;3.05;;;10.70;72.20;;;;;;5057672;28;20035;-81
2021/03/21 16:28:05;;;;;;;11.88;2.85;;;10.70;72.20;;;;;;5054940;28;20080;-81
2021/03/21 16:30:34;;;;;;;13.75;2.88;;;10.60;71.10;;;;;;5056719;28;20044;-83
2021/03/21 16:33:01;;;;;;;14.50;3.15;;;10.60;71.60;;;;;;5057366;28;20047;-81
2021/03/21 16:35:30;;;;;;;14.35;3.08;;;10.60;71.60;;;;;;5040553;28;20023;-82
2021/03/21 16:38:00;;;;;;;10.45;2.30;;;10.60;71.40;;;;;;5072643;28;20521;-82
2021/03/21 16:40:31;;;;;;;26.33;5.63;;;10.60;71.20;;;;;;5037054;28;20029;-82
2021/03/21 16:42:57;;;;;;;14.60;3.05;;;10.60;70.50;;;;;;5073552;28;20115;-84
2021/03/21 16:45:25;;;;;;;14.95;3.10;;;10.60;70.30;;;;;;5079983;28;20129;-81
2021/03/21 16:47:51;;;;;;;14.60;2.88;;;10.60;70.70;;;;;;5090337;28;20109;-82
2021/03/21 16:50:17;;;;;;;12.40;2.95;;;10.50;70.50;;;;;;5070760;28;20417;-82
2021/03/21 16:52:43;;;;;;;14.70;3.15;;;10.50;70.30;;;;;;5056548;28;20487;-82
2021/03/21 16:55:11;;;;;;;18.83;3.72;;;10.50;70.60;;;;;;5056508;28;20028;-82
2021/03/21 16:58:05;;;;;;;14.00;3.22;;;10.40;70.60;;;;;;5073247;28;20024;-82
2021/03/21 17:00:51;;;;;;;15.43;2.92;;;10.40;71.30;;;;;;5056728;28;20426;-82
2021/03/21 17:03:18;;;;;;;16.15;3.35;;;10.40;71.60;;;;;;5072824;28;20025;-82
2021/03/21 17:05:44;;;;;;;11.25;3.15;;;10.40;71.60;;;;;;5052527;28;20079;-83
2021/03/21 17:08:10;;;;;;;11.43;2.92;;;10.40;71.80;;;;;;5042100;28;20040;-83
2021/03/21 17:10:39;;;;;;;15.27;3.20;;;10.40;72.10;;;;;;5040861;28;20051;-82
2021/03/21 17:13:06;;;;;;;15.38;3.88;;;10.40;72.50;;;;;;5056001;28;20048;-83
2021/03/21 17:15:35;;;;;;;13.52;3.75;;;10.40;72.00;;;;;;5055949;28;20025;-84
2021/03/21 17:18:02;;;;;;;12.95;2.92;;;10.30;72.30;;;;;;5072430;28;20037;-83
2021/03/21 17:20:29;;;;;;;14.48;3.67;;;10.40;72.60;;;;;;5072126;28;20203;-83
2021/03/21 17:22:55;;;;;;;9.45;3.08;;;10.40;72.70;;;;;;5038718;28;20036;-86
2021/03/21 17:25:24;;;;;;;12.07;3.20;;;10.30;71.90;;;;;;5055832;28;20024;-83
2021/03/21 17:27:50;;;;;;;16.70;3.10;;;10.30;72.10;;;;;;5057372;28;20032;-82
2021/03/21 17:30:23;;;;;;;12.60;3.20;;;10.30;72.20;;;;;;5066319;28;20131;-81
2021/03/21 17:32:48;;;;;;;14.00;3.67;;;10.30;72.70;;;;;;5036238;28;20091;-82
2021/03/21 17:35:14;;;;;;;11.45;2.88;;;10.30;72.40;;;;;;5035489;28;20029;-81
2021/03/21 17:37:41;;;;;;;15.70;4.53;;;10.20;72.50;;;;;;5035943;28;20025;-79
2021/03/21 17:40:08;;;;;;;11.90;2.65;;;10.20;71.90;;;;;;5020701;28;20055;-80
2021/03/21 17:42:34;;;;;;;13.18;2.53;;;10.20;72.10;;;;;;5053796;28;20047;-80
2021/03/21 17:45:07;;;;;;;13.52;2.80;;;10.20;72.50;;;;;;5019658;28;20465;-79
2021/03/21 17:47:33;;;;;;;9.25;2.50;;;10.20;72.50;;;;;;5020398;28;20477;-81
2021/03/21 17:49:59;;;;;;;12.23;3.10;;;10.20;72.30;;;;;;5053435;28;20025;-81
2021/03/21 17:52:25;;;;;;;13.70;3.60;;;10.10;72.30;;;;;;5042333;28;20082;-81
2021/03/21 17:54:50;;;;;;;10.68;2.55;;;10.10;71.60;;;;;;5038823;28;20020;-83
2021/03/21 17:57:17;;;;;;;15.15;3.03;;;10.10;71.70;;;;;;5034352;28;20124;-84
2021/03/21 17:59:43;;;;;;;13.82;3.33;;;10.00;71.90;;;;;;5034456;28;20500;-82
2021/03/21 18:02:21;;;;;;;12.65;3.17;;;10.00;71.70;;;;;;5052480;28;20028;-83
2021/03/21 18:04:47;;;;;;;17.08;3.88;;;10.00;72.20;;;;;;5055708;28;20043;-83
2021/03/21 18:07:13;;;;;;;13.35;3.25;;;10.00;72.00;;;;;;5036673;28;20029;-82
2021/03/21 18:09:39;;;;;;;14.35;3.33;;;10.00;71.90;;;;;;5043679;28;20021;-83
2021/03/21 18:12:06;;;;;;;14.68;3.03;;;9.90;72.00;;;;;;5020524;28;20423;-83
2021/03/21 18:14:32;;;;;;;19.52;3.72;;;9.90;72.00;;;;;;5051719;28;20048;-82
2021/03/21 18:16:57;;;;;;;12.13;2.85;;;9.90;72.20;;;;;;5055073;28;20094;-82
2021/03/21 18:19:23;;;;;;;16.27;4.30;;;9.80;72.20;;;;;;5037311;28;20079;-83
2021/03/21 18:21:50;;;;;;;12.45;2.80;;;9.80;72.50;;;;;;5036603;28;20033;-84
2021/03/21 18:24:17;;;;;;;10.93;3.13;;;9.80;72.70;;;;;;5055457;28;20016;-82
2021/03/21 18:26:44;;;;;;;15.45;3.45;;;9.80;73.10;;;;;;5051811;28;20041;-80
2021/03/21 18:29:10;;;;;;;17.20;3.60;;;9.80;73.20;;;;;;5027465;28;20032;-81
2021/03/21 18:31:37;;;;;;;14.25;3.28;;;9.80;73.40;;;;;;5044570;28;20036;-86
2021/03/21 18:34:03;;;;;;;12.30;3.08;;;9.80;73.30;;;;;;5045277;28;20013;-84
2021/03/21 18:36:29;;;;;;;11.95;3.20;;;9.70;73.50;;;;;;5060606;28;20048;-82
2021/03/21 18:38:55;;;;;;;13.88;3.40;;;9.80;73.70;;;;;;5045571;28;20098;-83
2021/03/21 18:41:22;;;;;;;16.83;3.72;;;9.70;73.90;;;;;;5060176;28;20100;-83
2021/03/21 18:43:50;;;;;;;14.63;3.38;;;9.70;74.00;;;;;;5038478;28;20472;-84
2021/03/21 18:46:17;;;;;;;11.43;3.92;;;9.70;74.10;;;;;;5059265;28;20017;-84
2021/03/21 18:48:52;;;;;;;13.18;2.83;;;9.70;73.50;;;;;;5048152;28;20048;-85
2021/03/21 18:51:18;;;;;;;13.32;2.80;;;9.70;73.50;;;;;;5060322;28;20033;-83
2021/03/21 18:53:47;;;;;;;14.18;3.22;;;9.70;73.90;;;;;;5059936;28;20017;-83
2021/03/21 18:56:13;;;;;;;12.38;3.58;;;9.60;73.90;;;;;;5056973;28;20104;-82
2021/03/21 18:58:39;;;;;;;14.90;3.42;;;9.60;74.00;;;;;;5053456;28;20383;-83
2021/03/21 19:01:07;;;;;;;11.65;2.63;;;9.60;74.40;;;;;;5062967;28;20033;-83
2021/03/21 19:03:37;;;;;;;13.05;2.70;;;9.60;74.50;;;;;;5072432;28;20055;-84
2021/03/21 19:06:03;;;;;;;15.68;3.38;;;9.60;74.70;;;;;;5055950;28;20024;-93
2021/03/21 19:08:35;;;;;;;10.23;2.55;;;9.50;74.50;;;;;;5062097;28;20043;-94
2021/03/21 19:11:02;;;;;;;14.15;2.63;;;9.60;74.90;;;;;;5067609;28;20031;-86
2021/03/21 19:13:28;;;;;;;17.30;3.83;;;9.60;75.10;;;;;;5057828;28;20024;-87
2021/03/21 19:15:55;;;;;;;14.65;3.75;;;9.60;74.90;;;;;;5079407;28;20044;-88
2021/03/21 19:18:21;;;;;;;15.98;3.72;;;9.50;74.90;;;;;;5081805;28;20108;-83
2021/03/21 19:20:48;;;;;;;10.63;2.65;;;9.50;74.90;;;;;;5038098;28;20087;-88
2021/03/21 19:23:16;;;;;;;15.98;3.30;;;9.40;75.10;;;;;;5026155;28;20052;-82
2021/03/21 19:25:42;;;;;;;13.88;3.17;;;9.40;75.00;;;;;;5061857;28;20025;-82